X  CloseMetar Aviation Weather Data     KIAH George Bush Intercontinental / Houston

Temperature

43°F Temperature

41°F Dewpoint

93% Humidity



Wind

 5 MPH

 8 KM/H

 2 M/S

 4 KTS



20°
North North
East
Current Conditions

Partly Cloudy Partly Cloudy
Pressure 1021.72 (hPa) - 30.17 (in)
Visibility 10 (mi) - 16.1 (km)
Airport
Airport-code KIAH

Location George Bush Intercontinental / Houston 14 (mi)

Metar:
KIAH 251253Z 02004KT 10SM FEW090 SCT250 06/05 A3017 RMK AO2 SLP218 T00610050

Time: 01-25-2020 06:53